sensor_id;sensor_type;location;lat;lon;timestamp;P1;durP1;ratioP1;P2;durP2;ratioP2
64467;SDS011;50853;46.836;16.820;2024-03-23T00:56:00;3.05;;;2.28;;
64467;SDS011;50853;46.836;16.820;2024-03-23T00:58:26;3.70;;;2.20;;
64467;SDS011;50853;46.836;16.820;2024-03-23T01:00:52;2.45;;;1.85;;
64467;SDS011;50853;46.836;16.820;2024-03-23T01:03:17;2.40;;;1.60;;
64467;SDS011;50853;46.836;16.820;2024-03-23T01:05:43;2.80;;;2.08;;
64467;SDS011;50853;46.836;16.820;2024-03-23T01:08:09;2.40;;;1.88;;
64467;SDS011;50853;46.836;16.820;2024-03-23T01:10:35;3.53;;;2.28;;
64467;SDS011;50853;46.836;16.820;2024-03-23T01:13:00;3.75;;;2.13;;
64467;SDS011;50853;46.836;16.820;2024-03-23T01:15:26;2.95;;;2.10;;
64467;SDS011;50853;46.836;16.820;2024-03-23T01:17:52;3.15;;;1.98;;
64467;SDS011;50853;46.836;16.820;2024-03-23T01:20:18;2.53;;;1.88;;
64467;SDS011;50853;46.836;16.820;2024-03-23T01:22:44;2.60;;;1.90;;
64467;SDS011;50853;46.836;16.820;2024-03-23T01:25:10;3.00;;;1.95;;
64467;SDS011;50853;46.836;16.820;2024-03-23T01:27:36;2.67;;;2.00;;
64467;SDS011;50853;46.836;16.820;2024-03-23T01:30:02;2.60;;;1.92;;
64467;SDS011;50853;46.836;16.820;2024-03-23T01:32:28;3.25;;;2.25;;
64467;SDS011;50853;46.836;16.820;2024-03-23T01:34:54;2.85;;;1.83;;
64467;SDS011;50853;46.836;16.820;2024-03-23T01:37:20;2.97;;;2.13;;
64467;SDS011;50853;46.836;16.820;2024-03-23T01:39:45;2.65;;;2.05;;
64467;SDS011;50853;46.836;16.820;2024-03-23T01:42:12;2.57;;;1.83;;
64467;SDS011;50853;46.836;16.820;2024-03-23T01:44:38;2.17;;;1.80;;
64467;SDS011;50853;46.836;16.820;2024-03-23T01:47:03;2.83;;;2.13;;
64467;SDS011;50853;46.836;16.820;2024-03-23T01:49:31;2.58;;;2.00;;
64467;SDS011;50853;46.836;16.820;2024-03-23T01:51:58;3.05;;;2.10;;
64467;SDS011;50853;46.836;16.820;2024-03-23T01:54:25;3.03;;;2.13;;
64467;SDS011;50853;46.836;16.820;2024-03-23T01:56:51;3.67;;;2.33;;
64467;SDS011;50853;46.836;16.820;2024-03-23T01:59:17;3.30;;;2.00;;
64467;SDS011;50853;46.836;16.820;2024-03-23T02:01:43;3.30;;;2.05;;
64467;SDS011;50853;46.836;16.820;2024-03-23T02:04:08;4.15;;;2.40;;
64467;SDS011;50853;46.836;16.820;2024-03-23T02:06:35;2.90;;;2.15;;
64467;SDS011;50853;46.836;16.820;2024-03-23T02:09:00;3.03;;;2.08;;
64467;SDS011;50853;46.836;16.820;2024-03-23T02:11:27;3.27;;;2.43;;
64467;SDS011;50853;46.836;16.820;2024-03-23T02:13:53;3.05;;;2.33;;
64467;SDS011;50853;46.836;16.820;2024-03-23T02:16:19;3.10;;;2.20;;
64467;SDS011;50853;46.836;16.820;2024-03-23T02:18:44;3.22;;;2.22;;
64467;SDS011;50853;46.836;16.820;2024-03-23T02:21:10;3.28;;;2.50;;
64467;SDS011;50853;46.836;16.820;2024-03-23T02:23:36;3.17;;;2.10;;
64467;SDS011;50853;46.836;16.820;2024-03-23T02:26:02;2.72;;;2.05;;
64467;SDS011;50853;46.836;16.820;2024-03-23T02:28:28;2.95;;;2.20;;
64467;SDS011;50853;46.836;16.820;2024-03-23T02:30:54;3.30;;;1.92;;
64467;SDS011;50853;46.836;16.820;2024-03-23T02:33:20;3.80;;;2.42;;
64467;SDS011;50853;46.836;16.820;2024-03-23T02:35:46;3.00;;;2.25;;
64467;SDS011;50853;46.836;16.820;2024-03-23T02:38:12;3.47;;;2.22;;
64467;SDS011;50853;46.836;16.820;2024-03-23T02:40:38;3.30;;;2.40;;
64467;SDS011;50853;46.836;16.820;2024-03-23T02:43:04;3.28;;;2.10;;
64467;SDS011;50853;46.836;16.820;2024-03-23T02:45:30;3.20;;;2.13;;
64467;SDS011;50853;46.836;16.820;2024-03-23T02:47:56;3.10;;;2.17;;
64467;SDS011;50853;46.836;16.820;2024-03-23T02:50:22;3.55;;;2.58;;
64467;SDS011;50853;46.836;16.820;2024-03-23T02:52:48;2.80;;;1.95;;
64467;SDS011;50853;46.836;16.820;2024-03-23T02:55:14;2.97;;;2.20;;
64467;SDS011;50853;46.836;16.820;2024-03-23T02:57:40;2.47;;;1.90;;
64467;SDS011;50853;46.836;16.820;2024-03-23T03:00:06;2.80;;;2.10;;
64467;SDS011;50853;46.836;16.820;2024-03-23T03:02:32;2.95;;;2.10;;
64467;SDS011;50853;46.836;16.820;2024-03-23T03:04:59;2.60;;;1.90;;
64467;SDS011;50853;46.836;16.820;2024-03-23T03:07:25;2.80;;;2.00;;
64467;SDS011;50853;46.836;16.820;2024-03-23T03:09:50;2.58;;;1.90;;
64467;SDS011;50853;46.836;16.820;2024-03-23T03:12:16;2.95;;;2.20;;
64467;SDS011;50853;46.836;16.820;2024-03-23T03:14:42;3.55;;;2.00;;
64467;SDS011;50853;46.836;16.820;2024-03-23T03:17:08;3.28;;;2.15;;
64467;SDS011;50853;46.836;16.820;2024-03-23T03:19:34;3.00;;;1.95;;
64467;SDS011;50853;46.836;16.820;2024-03-23T03:22:00;3.67;;;2.35;;
64467;SDS011;50853;46.836;16.820;2024-03-23T03:24:25;3.20;;;2.03;;
64467;SDS011;50853;46.836;16.820;2024-03-23T03:26:51;3.20;;;2.20;;
64467;SDS011;50853;46.836;16.820;2024-03-23T03:29:17;2.90;;;1.98;;
64467;SDS011;50853;46.836;16.820;2024-03-23T03:31:43;2.75;;;2.10;;
64467;SDS011;50853;46.836;16.820;2024-03-23T03:34:09;3.00;;;2.15;;
64467;SDS011;50853;46.836;16.820;2024-03-23T03:36:35;2.80;;;2.13;;
64467;SDS011;50853;46.836;16.820;2024-03-23T03:39:01;2.78;;;1.95;;
64467;SDS011;50853;46.836;16.820;2024-03-23T03:41:28;2.72;;;2.00;;
64467;SDS011;50853;46.836;16.820;2024-03-23T03:43:54;3.20;;;1.85;;
64467;SDS011;50853;46.836;16.820;2024-03-23T03:46:20;2.90;;;2.30;;
64467;SDS011;50853;46.836;16.820;2024-03-23T03:48:46;3.25;;;2.20;;
64467;SDS011;50853;46.836;16.820;2024-03-23T03:51:13;3.42;;;2.20;;
64467;SDS011;50853;46.836;16.820;2024-03-23T03:53:39;2.95;;;2.08;;
64467;SDS011;50853;46.836;16.820;2024-03-23T03:56:05;3.00;;;1.92;;
64467;SDS011;50853;46.836;16.820;2024-03-23T03:58:31;2.87;;;2.00;;
64467;SDS011;50853;46.836;16.820;2024-03-23T04:00:57;2.80;;;1.90;;
64467;SDS011;50853;46.836;16.820;2024-03-23T04:03:23;2.95;;;1.70;;
64467;SDS011;50853;46.836;16.820;2024-03-23T04:05:50;2.30;;;1.80;;
64467;SDS011;50853;46.836;16.820;2024-03-23T04:08:19;2.60;;;1.90;;
64467;SDS011;50853;46.836;16.820;2024-03-23T04:10:45;2.77;;;2.10;;
64467;SDS011;50853;46.836;16.820;2024-03-23T04:13:14;3.65;;;2.28;;
64467;SDS011;50853;46.836;16.820;2024-03-23T04:15:41;3.65;;;2.20;;
64467;SDS011;50853;46.836;16.820;2024-03-23T04:18:07;2.72;;;2.10;;
64467;SDS011;50853;46.836;16.820;2024-03-23T04:20:33;2.78;;;2.05;;
64467;SDS011;50853;46.836;16.820;2024-03-23T04:22:59;2.85;;;2.13;;
64467;SDS011;50853;46.836;16.820;2024-03-23T04:25:25;2.42;;;1.92;;
64467;SDS011;50853;46.836;16.820;2024-03-23T04:27:51;3.20;;;2.20;;
64467;SDS011;50853;46.836;16.820;2024-03-23T04:30:17;3.15;;;2.00;;
64467;SDS011;50853;46.836;16.820;2024-03-23T04:32:42;3.17;;;2.10;;
64467;SDS011;50853;46.836;16.820;2024-03-23T04:35:08;3.05;;;2.10;;
64467;SDS011;50853;46.836;16.820;2024-03-23T04:37:37;3.10;;;2.20;;
64467;SDS011;50853;46.836;16.820;2024-03-23T04:40:06;3.03;;;2.10;;
64467;SDS011;50853;46.836;16.820;2024-03-23T04:42:32;2.67;;;1.90;;
64467;SDS011;50853;46.836;16.820;2024-03-23T04:44:59;3.28;;;2.03;;
64467;SDS011;50853;46.836;16.820;2024-03-23T04:47:25;3.60;;;2.42;;
64467;SDS011;50853;46.836;16.820;2024-03-23T04:49:51;3.20;;;2.20;;
64467;SDS011;50853;46.836;16.820;2024-03-23T04:52:17;2.78;;;2.13;;
64467;SDS011;50853;46.836;16.820;2024-03-23T04:54:43;2.70;;;1.83;;
64467;SDS011;50853;46.836;16.820;2024-03-23T04:57:10;2.65;;;2.10;;
64467;SDS011;50853;46.836;16.820;2024-03-23T04:59:36;2.38;;;1.88;;
64467;SDS011;50853;46.836;16.820;2024-03-23T05:02:02;2.78;;;1.95;;
64467;SDS011;50853;46.836;16.820;2024-03-23T05:04:28;3.00;;;2.17;;
64467;SDS011;50853;46.836;16.820;2024-03-23T05:06:54;3.20;;;2.17;;
64467;SDS011;50853;46.836;16.820;2024-03-23T05:09:20;2.80;;;2.10;;
64467;SDS011;50853;46.836;16.820;2024-03-23T05:11:46;5.18;;;1.95;;
64467;SDS011;50853;46.836;16.820;2024-03-23T05:14:13;2.83;;;1.83;;
64467;SDS011;50853;46.836;16.820;2024-03-23T05:16:39;3.22;;;2.25;;
64467;SDS011;50853;46.836;16.820;2024-03-23T05:19:05;2.70;;;2.13;;
64467;SDS011;50853;46.836;16.820;2024-03-23T05:21:31;2.70;;;1.90;;
64467;SDS011;50853;46.836;16.820;2024-03-23T05:23:57;2.63;;;1.88;;
64467;SDS011;50853;46.836;16.820;2024-03-23T05:26:22;3.00;;;2.10;;
64467;SDS011;50853;46.836;16.820;2024-03-23T05:28:48;3.30;;;2.45;;
64467;SDS011;50853;46.836;16.820;2024-03-23T05:31:27;4.07;;;2.20;;
64467;SDS011;50853;46.836;16.820;2024-03-23T05:33:54;3.05;;;2.20;;
64467;SDS011;50853;46.836;16.820;2024-03-23T05:36:20;3.28;;;2.08;;
64467;SDS011;50853;46.836;16.820;2024-03-23T05:38:46;3.95;;;2.58;;
64467;SDS011;50853;46.836;16.820;2024-03-23T05:41:12;2.72;;;1.85;;
64467;SDS011;50853;46.836;16.820;2024-03-23T05:43:38;3.13;;;2.13;;
64467;SDS011;50853;46.836;16.820;2024-03-23T05:46:04;2.63;;;2.03;;
64467;SDS011;50853;46.836;16.820;2024-03-23T05:48:30;2.92;;;2.10;;
64467;SDS011;50853;46.836;16.820;2024-03-23T05:50:57;3.57;;;2.40;;
64467;SDS011;50853;46.836;16.820;2024-03-23T05:53:23;2.83;;;2.13;;
64467;SDS011;50853;46.836;16.820;2024-03-23T05:55:49;4.45;;;2.85;;
64467;SDS011;50853;46.836;16.820;2024-03-23T05:58:16;4.57;;;2.75;;
64467;SDS011;50853;46.836;16.820;2024-03-23T06:00:43;4.47;;;2.72;;
64467;SDS011;50853;46.836;16.820;2024-03-23T06:03:09;3.33;;;2.50;;
64467;SDS011;50853;46.836;16.820;2024-03-23T06:05:36;3.47;;;2.50;;
64467;SDS011;50853;46.836;16.820;2024-03-23T06:08:02;4.13;;;2.83;;
64467;SDS011;50853;46.836;16.820;2024-03-23T06:10:29;5.32;;;3.10;;
64467;SDS011;50853;46.836;16.820;2024-03-23T06:12:54;4.05;;;2.80;;
64467;SDS011;50853;46.836;16.820;2024-03-23T06:15:20;6.38;;;2.97;;
64467;SDS011;50853;46.836;16.820;2024-03-23T06:17:48;3.30;;;2.40;;
64467;SDS011;50853;46.836;16.820;2024-03-23T06:20:13;3.22;;;2.63;;
64467;SDS011;50853;46.836;16.820;2024-03-23T06:22:39;4.65;;;3.30;;
64467;SDS011;50853;46.836;16.820;2024-03-23T06:25:06;5.00;;;2.90;;
64467;SDS011;50853;46.836;16.820;2024-03-23T06:27:32;4.00;;;3.00;;
64467;SDS011;50853;46.836;16.820;2024-03-23T06:29:58;3.67;;;2.90;;
64467;SDS011;50853;46.836;16.820;2024-03-23T06:32:25;3.55;;;2.60;;
64467;SDS011;50853;46.836;16.820;2024-03-23T06:34:51;3.55;;;2.47;;
64467;SDS011;50853;46.836;16.820;2024-03-23T06:37:16;4.45;;;2.70;;
64467;SDS011;50853;46.836;16.820;2024-03-23T06:39:42;3.75;;;2.75;;
64467;SDS011;50853;46.836;16.820;2024-03-23T06:42:11;3.58;;;2.78;;
64467;SDS011;50853;46.836;16.820;2024-03-23T06:44:37;3.38;;;2.50;;
64467;SDS011;50853;46.836;16.820;2024-03-23T06:47:02;3.53;;;2.55;;
64467;SDS011;50853;46.836;16.820;2024-03-23T06:49:28;3.72;;;2.78;;
64467;SDS011;50853;46.836;16.820;2024-03-23T06:51:54;3.25;;;2.38;;
64467;SDS011;50853;46.836;16.820;2024-03-23T06:54:20;3.28;;;2.58;;
64467;SDS011;50853;46.836;16.820;2024-03-23T06:56:46;3.55;;;2.78;;
64467;SDS011;50853;46.836;16.820;2024-03-23T06:59:12;4.20;;;2.45;;
64467;SDS011;50853;46.836;16.820;2024-03-23T07:01:38;3.60;;;2.60;;
64467;SDS011;50853;46.836;16.820;2024-03-23T07:04:04;3.47;;;2.78;;
64467;SDS011;50853;46.836;16.820;2024-03-23T07:06:30;5.30;;;2.33;;
64467;SDS011;50853;46.836;16.820;2024-03-23T07:08:56;3.58;;;2.50;;
64467;SDS011;50853;46.836;16.820;2024-03-23T07:11:22;3.38;;;2.13;;
64467;SDS011;50853;46.836;16.820;2024-03-23T07:13:52;3.70;;;2.67;;
64467;SDS011;50853;46.836;16.820;2024-03-23T07:16:21;13.00;;;3.47;;
64467;SDS011;50853;46.836;16.820;2024-03-23T07:18:46;13.70;;;3.38;;
64467;SDS011;50853;46.836;16.820;2024-03-23T07:21:12;14.73;;;3.60;;
64467;SDS011;50853;46.836;16.820;2024-03-23T07:26:09;19.65;;;4.72;;
64467;SDS011;50853;46.836;16.820;2024-03-23T07:28:36;14.10;;;5.10;;
64467;SDS011;50853;46.836;16.820;2024-03-23T07:31:06;38.43;;;5.70;;
64467;SDS011;50853;46.836;16.820;2024-03-23T07:33:42;20.02;;;5.68;;
64467;SDS011;50853;46.836;16.820;2024-03-23T07:36:09;40.38;;;5.70;;
64467;SDS011;50853;46.836;16.820;2024-03-23T07:38:35;16.25;;;4.50;;
64467;SDS011;50853;46.836;16.820;2024-03-23T07:41:05;31.15;;;5.57;;
64467;SDS011;50853;46.836;16.820;2024-03-23T07:43:31;36.58;;;5.40;;
64467;SDS011;50853;46.836;16.820;2024-03-23T07:45:58;41.20;;;7.53;;
64467;SDS011;50853;46.836;16.820;2024-03-23T07:48:25;56.22;;;7.80;;
64467;SDS011;50853;46.836;16.820;2024-03-23T07:51:00;62.72;;;7.35;;
64467;SDS011;50853;46.836;16.820;2024-03-23T07:53:29;59.80;;;7.10;;
64467;SDS011;50853;46.836;16.820;2024-03-23T07:56:08;44.03;;;6.57;;
64467;SDS011;50853;46.836;16.820;2024-03-23T07:58:40;44.55;;;6.75;;
64467;SDS011;50853;46.836;16.820;2024-03-23T08:01:10;18.50;;;5.93;;
64467;SDS011;50853;46.836;16.820;2024-03-23T08:03:37;21.35;;;6.47;;
64467;SDS011;50853;46.836;16.820;2024-03-23T08:06:14;19.08;;;5.53;;
64467;SDS011;50853;46.836;16.820;2024-03-23T08:08:40;14.57;;;5.90;;
64467;SDS011;50853;46.836;16.820;2024-03-23T08:11:07;17.80;;;5.32;;
64467;SDS011;50853;46.836;16.820;2024-03-23T08:13:34;20.48;;;6.25;;
64467;SDS011;50853;46.836;16.820;2024-03-23T08:16:01;18.02;;;5.97;;
64467;SDS011;50853;46.836;16.820;2024-03-23T08:18:28;24.90;;;6.80;;
64467;SDS011;50853;46.836;16.820;2024-03-23T08:20:55;15.40;;;6.20;;
64467;SDS011;50853;46.836;16.820;2024-03-23T08:23:25;21.52;;;6.10;;
64467;SDS011;50853;46.836;16.820;2024-03-23T08:25:57;28.63;;;6.85;;
64467;SDS011;50853;46.836;16.820;2024-03-23T08:28:24;36.83;;;7.15;;
64467;SDS011;50853;46.836;16.820;2024-03-23T08:30:50;39.77;;;7.20;;
64467;SDS011;50853;46.836;16.820;2024-03-23T08:33:17;19.63;;;6.53;;
64467;SDS011;50853;46.836;16.820;2024-03-23T08:35:43;49.78;;;7.38;;
64467;SDS011;50853;46.836;16.820;2024-03-23T08:38:21;55.85;;;8.45;;
64467;SDS011;50853;46.836;16.820;2024-03-23T08:40:53;23.60;;;6.18;;
64467;SDS011;50853;46.836;16.820;2024-03-23T08:43:22;29.42;;;6.50;;
64467;SDS011;50853;46.836;16.820;2024-03-23T08:45:48;26.75;;;6.25;;
64467;SDS011;50853;46.836;16.820;2024-03-23T08:48:14;34.80;;;7.25;;
64467;SDS011;50853;46.836;16.820;2024-03-23T08:50:39;29.67;;;7.03;;
64467;SDS011;50853;46.836;16.820;2024-03-23T08:53:05;27.23;;;6.65;;
64467;SDS011;50853;46.836;16.820;2024-03-23T08:55:31;23.77;;;7.25;;
64467;SDS011;50853;46.836;16.820;2024-03-23T08:57:57;20.67;;;6.80;;
64467;SDS011;50853;46.836;16.820;2024-03-23T09:00:22;22.80;;;6.60;;
64467;SDS011;50853;46.836;16.820;2024-03-23T09:02:49;22.52;;;6.65;;
64467;SDS011;50853;46.836;16.820;2024-03-23T09:05:15;25.45;;;6.70;;
64467;SDS011;50853;46.836;16.820;2024-03-23T09:07:41;25.95;;;7.00;;
64467;SDS011;50853;46.836;16.820;2024-03-23T09:10:07;32.13;;;7.38;;
64467;SDS011;50853;46.836;16.820;2024-03-23T09:12:33;35.08;;;6.90;;
64467;SDS011;50853;46.836;16.820;2024-03-23T09:14:59;51.67;;;8.10;;
64467;SDS011;50853;46.836;16.820;2024-03-23T09:17:25;31.90;;;7.97;;
64467;SDS011;50853;46.836;16.820;2024-03-23T09:19:50;33.05;;;7.18;;
64467;SDS011;50853;46.836;16.820;2024-03-23T09:22:16;25.23;;;6.45;;
64467;SDS011;50853;46.836;16.820;2024-03-23T09:24:42;29.20;;;6.50;;
64467;SDS011;50853;46.836;16.820;2024-03-23T09:27:08;32.30;;;6.82;;
64467;SDS011;50853;46.836;16.820;2024-03-23T09:29:33;21.67;;;6.82;;
64467;SDS011;50853;46.836;16.820;2024-03-23T09:31:59;23.73;;;7.03;;
64467;SDS011;50853;46.836;16.820;2024-03-23T09:34:25;20.50;;;7.50;;
64467;SDS011;50853;46.836;16.820;2024-03-23T09:36:51;24.27;;;7.75;;
64467;SDS011;50853;46.836;16.820;2024-03-23T09:39:17;38.30;;;7.97;;
64467;SDS011;50853;46.836;16.820;2024-03-23T09:41:44;25.23;;;6.75;;
64467;SDS011;50853;46.836;16.820;2024-03-23T09:44:10;32.03;;;7.47;;
64467;SDS011;50853;46.836;16.820;2024-03-23T09:46:36;24.55;;;7.43;;
64467;SDS011;50853;46.836;16.820;2024-03-23T09:49:04;28.95;;;7.20;;
64467;SDS011;50853;46.836;16.820;2024-03-23T09:51:35;53.70;;;8.13;;
64467;SDS011;50853;46.836;16.820;2024-03-23T09:54:02;22.17;;;6.88;;
64467;SDS011;50853;46.836;16.820;2024-03-23T09:56:28;24.67;;;6.28;;
64467;SDS011;50853;46.836;16.820;2024-03-23T09:59:03;26.20;;;6.28;;
64467;SDS011;50853;46.836;16.820;2024-03-23T10:01:32;15.27;;;6.10;;
64467;SDS011;50853;46.836;16.820;2024-03-23T10:03:58;27.88;;;6.68;;
64467;SDS011;50853;46.836;16.820;2024-03-23T10:06:24;29.08;;;6.55;;
64467;SDS011;50853;46.836;16.820;2024-03-23T10:08:51;23.95;;;7.10;;
64467;SDS011;50853;46.836;16.820;2024-03-23T10:13:44;18.92;;;6.53;;
64467;SDS011;50853;46.836;16.820;2024-03-23T10:16:11;25.15;;;6.35;;
64467;SDS011;50853;46.836;16.820;2024-03-23T10:18:45;17.00;;;6.43;;
64467;SDS011;50853;46.836;16.820;2024-03-23T10:21:11;19.20;;;6.32;;
64467;SDS011;50853;46.836;16.820;2024-03-23T10:23:38;47.22;;;7.88;;
64467;SDS011;50853;46.836;16.820;2024-03-23T10:26:18;20.30;;;6.25;;
64467;SDS011;50853;46.836;16.820;2024-03-23T10:31:42;28.05;;;6.78;;
64467;SDS011;50853;46.836;16.820;2024-03-23T10:34:08;20.90;;;5.95;;
64467;SDS011;50853;46.836;16.820;2024-03-23T10:36:37;20.92;;;7.20;;
64467;SDS011;50853;46.836;16.820;2024-03-23T10:39:06;19.58;;;6.10;;
64467;SDS011;50853;46.836;16.820;2024-03-23T10:41:33;29.52;;;6.30;;
64467;SDS011;50853;46.836;16.820;2024-03-23T10:43:59;39.80;;;6.53;;
64467;SDS011;50853;46.836;16.820;2024-03-23T10:46:27;33.88;;;7.15;;
64467;SDS011;50853;46.836;16.820;2024-03-23T10:48:53;29.42;;;7.65;;
64467;SDS011;50853;46.836;16.820;2024-03-23T10:51:19;21.17;;;7.63;;
64467;SDS011;50853;46.836;16.820;2024-03-23T10:53:45;41.75;;;8.32;;
64467;SDS011;50853;46.836;16.820;2024-03-23T10:56:12;49.85;;;7.38;;
64467;SDS011;50853;46.836;16.820;2024-03-23T10:58:41;48.95;;;8.10;;
64467;SDS011;50853;46.836;16.820;2024-03-23T11:01:11;41.45;;;7.65;;
64467;SDS011;50853;46.836;16.820;2024-03-23T11:03:44;27.63;;;7.38;;
64467;SDS011;50853;46.836;16.820;2024-03-23T11:06:12;31.48;;;6.88;;
64467;SDS011;50853;46.836;16.820;2024-03-23T11:09:01;38.83;;;8.50;;
64467;SDS011;50853;46.836;16.820;2024-03-23T11:11:27;36.78;;;7.15;;
64467;SDS011;50853;46.836;16.820;2024-03-23T11:13:56;46.85;;;9.10;;
64467;SDS011;50853;46.836;16.820;2024-03-23T11:16:24;62.10;;;10.63;;
64467;SDS011;50853;46.836;16.820;2024-03-23T11:22:04;71.28;;;13.73;;
64467;SDS011;50853;46.836;16.820;2024-03-23T11:24:30;77.95;;;14.40;;
64467;SDS011;50853;46.836;16.820;2024-03-23T11:26:56;50.60;;;13.02;;
64467;SDS011;50853;46.836;16.820;2024-03-23T11:29:25;61.50;;;14.52;;
64467;SDS011;50853;46.836;16.820;2024-03-23T11:31:51;63.47;;;10.85;;
64467;SDS011;50853;46.836;16.820;2024-03-23T11:34:20;65.38;;;12.00;;
64467;SDS011;50853;46.836;16.820;2024-03-23T11:36:47;68.38;;;11.95;;
64467;SDS011;50853;46.836;16.820;2024-03-23T11:39:19;52.90;;;10.85;;
64467;SDS011;50853;46.836;16.820;2024-03-23T11:41:48;53.80;;;11.32;;
64467;SDS011;50853;46.836;16.820;2024-03-23T11:44:19;45.65;;;11.07;;
64467;SDS011;50853;46.836;16.820;2024-03-23T11:46:51;50.88;;;8.80;;
64467;SDS011;50853;46.836;16.820;2024-03-23T11:49:21;46.20;;;12.00;;
64467;SDS011;50853;46.836;16.820;2024-03-23T11:51:54;83.93;;;12.70;;
64467;SDS011;50853;46.836;16.820;2024-03-23T11:56:54;58.60;;;12.35;;
64467;SDS011;50853;46.836;16.820;2024-03-23T11:59:39;85.40;;;11.30;;
64467;SDS011;50853;46.836;16.820;2024-03-23T12:04:36;126.68;;;13.95;;
64467;SDS011;50853;46.836;16.820;2024-03-23T12:07:09;92.22;;;11.77;;
64467;SDS011;50853;46.836;16.820;2024-03-23T12:09:39;117.88;;;12.27;;
64467;SDS011;50853;46.836;16.820;2024-03-23T12:12:10;82.20;;;11.38;;
64467;SDS011;50853;46.836;16.820;2024-03-23T12:14:40;69.57;;;11.02;;
64467;SDS011;50853;46.836;16.820;2024-03-23T12:17:10;68.10;;;10.32;;
64467;SDS011;50853;46.836;16.820;2024-03-23T12:19:37;70.85;;;9.32;;
64467;SDS011;50853;46.836;16.820;2024-03-23T12:22:03;53.13;;;9.18;;
64467;SDS011;50853;46.836;16.820;2024-03-23T12:24:31;39.55;;;8.95;;
64467;SDS011;50853;46.836;16.820;2024-03-23T12:26:59;58.55;;;9.38;;
64467;SDS011;50853;46.836;16.820;2024-03-23T12:29:33;56.28;;;9.65;;
64467;SDS011;50853;46.836;16.820;2024-03-23T12:32:00;44.90;;;8.65;;
64467;SDS011;50853;46.836;16.820;2024-03-23T12:34:27;32.15;;;9.27;;
64467;SDS011;50853;46.836;16.820;2024-03-23T12:36:53;36.30;;;7.80;;
64467;SDS011;50853;46.836;16.820;2024-03-23T12:39:19;43.22;;;8.27;;
64467;SDS011;50853;46.836;16.820;2024-03-23T12:41:49;48.85;;;8.38;;
64467;SDS011;50853;46.836;16.820;2024-03-23T12:44:15;28.27;;;7.07;;
64467;SDS011;50853;46.836;16.820;2024-03-23T12:46:42;35.42;;;7.50;;
64467;SDS011;50853;46.836;16.820;2024-03-23T12:49:07;40.90;;;7.70;;
64467;SDS011;50853;46.836;16.820;2024-03-23T12:51:33;30.70;;;7.95;;
64467;SDS011;50853;46.836;16.820;2024-03-23T12:53:59;34.97;;;7.28;;
64467;SDS011;50853;46.836;16.820;2024-03-23T12:56:25;27.85;;;7.80;;
64467;SDS011;50853;46.836;16.820;2024-03-23T12:58:53;31.23;;;7.55;;
64467;SDS011;50853;46.836;16.820;2024-03-23T13:01:20;43.70;;;7.22;;
64467;SDS011;50853;46.836;16.820;2024-03-23T13:03:47;24.33;;;7.45;;
64467;SDS011;50853;46.836;16.820;2024-03-23T13:06:12;26.85;;;6.85;;
64467;SDS011;50853;46.836;16.820;2024-03-23T13:08:38;25.85;;;6.20;;
64467;SDS011;50853;46.836;16.820;2024-03-23T13:11:08;32.03;;;7.40;;
64467;SDS011;50853;46.836;16.820;2024-03-23T13:13:36;42.80;;;8.23;;
64467;SDS011;50853;46.836;16.820;2024-03-23T13:16:02;30.27;;;6.88;;
64467;SDS011;50853;46.836;16.820;2024-03-23T13:18:29;24.53;;;6.70;;
64467;SDS011;50853;46.836;16.820;2024-03-23T13:33:02;18.85;;;6.05;;
64467;SDS011;50853;46.836;16.820;2024-03-23T13:35:28;14.88;;;6.40;;
64467;SDS011;50853;46.836;16.820;2024-03-23T13:37:54;23.20;;;5.68;;
64467;SDS011;50853;46.836;16.820;2024-03-23T13:40:19;22.98;;;6.38;;
64467;SDS011;50853;46.836;16.820;2024-03-23T13:42:45;23.83;;;6.13;;
64467;SDS011;50853;46.836;16.820;2024-03-23T13:45:11;25.75;;;5.82;;
64467;SDS011;50853;46.836;16.820;2024-03-23T13:47:37;16.05;;;6.13;;
64467;SDS011;50853;46.836;16.820;2024-03-23T13:50:03;19.48;;;5.40;;
64467;SDS011;50853;46.836;16.820;2024-03-23T13:52:29;20.23;;;6.00;;
64467;SDS011;50853;46.836;16.820;2024-03-23T13:54:56;17.50;;;6.88;;
64467;SDS011;50853;46.836;16.820;2024-03-23T13:57:22;16.85;;;5.53;;
64467;SDS011;50853;46.836;16.820;2024-03-23T13:59:48;17.15;;;5.22;;
64467;SDS011;50853;46.836;16.820;2024-03-23T14:02:14;24.33;;;6.90;;
64467;SDS011;50853;46.836;16.820;2024-03-23T14:04:40;17.55;;;5.65;;
64467;SDS011;50853;46.836;16.820;2024-03-23T14:07:06;13.10;;;5.25;;
64467;SDS011;50853;46.836;16.820;2024-03-23T14:09:34;17.30;;;5.30;;
64467;SDS011;50853;46.836;16.820;2024-03-23T14:11:59;15.60;;;5.45;;
64467;SDS011;50853;46.836;16.820;2024-03-23T14:14:25;12.77;;;4.93;;
64467;SDS011;50853;46.836;16.820;2024-03-23T14:16:51;12.27;;;5.25;;
64467;SDS011;50853;46.836;16.820;2024-03-23T14:19:18;23.00;;;5.15;;
64467;SDS011;50853;46.836;16.820;2024-03-23T14:21:44;18.23;;;5.40;;
64467;SDS011;50853;46.836;16.820;2024-03-23T14:24:10;18.30;;;5.53;;
64467;SDS011;50853;46.836;16.820;2024-03-23T14:26:36;12.80;;;5.40;;
64467;SDS011;50853;46.836;16.820;2024-03-23T14:29:02;10.05;;;4.75;;
64467;SDS011;50853;46.836;16.820;2024-03-23T14:31:28;10.00;;;5.15;;
64467;SDS011;50853;46.836;16.820;2024-03-23T14:33:54;9.88;;;5.18;;
64467;SDS011;50853;46.836;16.820;2024-03-23T14:36:20;18.02;;;5.28;;
64467;SDS011;50853;46.836;16.820;2024-03-23T14:38:49;15.82;;;5.10;;
64467;SDS011;50853;46.836;16.820;2024-03-23T14:41:15;10.85;;;4.65;;
64467;SDS011;50853;46.836;16.820;2024-03-23T14:43:41;16.23;;;5.50;;
64467;SDS011;50853;46.836;16.820;2024-03-23T14:46:10;12.57;;;4.93;;
64467;SDS011;50853;46.836;16.820;2024-03-23T14:48:38;14.80;;;5.00;;
64467;SDS011;50853;46.836;16.820;2024-03-23T14:51:04;12.85;;;4.57;;
64467;SDS011;50853;46.836;16.820;2024-03-23T14:53:32;10.02;;;3.78;;
64467;SDS011;50853;46.836;16.820;2024-03-23T14:55:58;17.07;;;4.47;;
64467;SDS011;50853;46.836;16.820;2024-03-23T14:58:25;11.65;;;4.60;;
64467;SDS011;50853;46.836;16.820;2024-03-23T15:00:51;9.85;;;4.53;;
64467;SDS011;50853;46.836;16.820;2024-03-23T15:03:17;10.10;;;4.80;;
64467;SDS011;50853;46.836;16.820;2024-03-23T15:05:55;12.20;;;5.05;;
64467;SDS011;50853;46.836;16.820;2024-03-23T15:08:22;17.33;;;4.55;;
64467;SDS011;50853;46.836;16.820;2024-03-23T15:10:49;12.83;;;4.70;;
64467;SDS011;50853;46.836;16.820;2024-03-23T15:13:15;10.52;;;4.20;;
64467;SDS011;50853;46.836;16.820;2024-03-23T15:15:41;9.55;;;4.03;;
64467;SDS011;50853;46.836;16.820;2024-03-23T15:18:11;11.43;;;4.32;;
64467;SDS011;50853;46.836;16.820;2024-03-23T15:23:04;9.10;;;4.70;;
64467;SDS011;50853;46.836;16.820;2024-03-23T15:25:30;14.18;;;4.70;;
64467;SDS011;50853;46.836;16.820;2024-03-23T15:27:57;12.25;;;3.80;;
64467;SDS011;50853;46.836;16.820;2024-03-23T15:30:24;9.32;;;4.32;;
64467;SDS011;50853;46.836;16.820;2024-03-23T15:32:50;10.90;;;4.15;;
64467;SDS011;50853;46.836;16.820;2024-03-23T15:35:17;11.30;;;4.40;;
64467;SDS011;50853;46.836;16.820;2024-03-23T15:37:44;10.15;;;3.92;;
64467;SDS011;50853;46.836;16.820;2024-03-23T15:40:10;8.80;;;3.90;;
64467;SDS011;50853;46.836;16.820;2024-03-23T15:42:38;12.65;;;4.10;;
64467;SDS011;50853;46.836;16.820;2024-03-23T15:45:06;7.10;;;3.70;;
64467;SDS011;50853;46.836;16.820;2024-03-23T15:47:32;9.23;;;4.15;;
64467;SDS011;50853;46.836;16.820;2024-03-23T15:49:59;8.10;;;3.70;;